sensor_id;sensor_type;location;lat;lon;timestamp;pressure;altitude;pressure_sealevel;temperature;humidity
5609;BME280;2826;51.354;9.588;2023-09-19T00:02:21;97399.84;;;18.06;86.57
5609;BME280;2826;51.354;9.588;2023-09-19T00:04:48;97402.47;;;18.06;86.92
5609;BME280;2826;51.354;9.588;2023-09-19T00:07:15;97399.97;;;18.04;87.71
5609;BME280;2826;51.354;9.588;2023-09-19T00:09:42;97412.72;;;18.09;87.06
5609;BME280;2826;51.354;9.588;2023-09-19T00:12:09;97405.59;;;18.11;87.53
5609;BME280;2826;51.354;9.588;2023-09-19T00:14:38;97403.28;;;18.18;86.53
5609;BME280;2826;51.354;9.588;2023-09-19T00:17:05;97406.88;;;18.17;86.65
5609;BME280;2826;51.354;9.588;2023-09-19T00:19:35;97408.78;;;18.14;86.46
5609;BME280;2826;51.354;9.588;2023-09-19T00:22:03;97407.25;;;18.12;86.97
5609;BME280;2826;51.354;9.588;2023-09-19T00:24:30;97404.75;;;18.10;86.72
5609;BME280;2826;51.354;9.588;2023-09-19T00:26:57;97405.81;;;18.08;86.66
5609;BME280;2826;51.354;9.588;2023-09-19T00:29:25;97414.06;;;18.03;87.66
5609;BME280;2826;51.354;9.588;2023-09-19T00:31:54;97424.41;;;18.05;87.74
5609;BME280;2826;51.354;9.588;2023-09-19T00:34:21;97423.47;;;18.06;88.29
5609;BME280;2826;51.354;9.588;2023-09-19T00:36:50;97416.19;;;18.09;87.95
5609;BME280;2826;51.354;9.588;2023-09-19T00:39:18;97420.59;;;18.09;88.31
5609;BME280;2826;51.354;9.588;2023-09-19T00:41:45;97416.88;;;18.11;88.63
5609;BME280;2826;51.354;9.588;2023-09-19T00:44:13;97420.47;;;18.10;89.18
5609;BME280;2826;51.354;9.588;2023-09-19T00:46:41;97425.38;;;18.03;89.29
5609;BME280;2826;51.354;9.588;2023-09-19T00:49:08;97422.88;;;18.02;89.20
5609;BME280;2826;51.354;9.588;2023-09-19T00:51:36;97435.41;;;17.98;89.20
5609;BME280;2826;51.354;9.588;2023-09-19T00:54:05;97424.47;;;17.93;89.27
5609;BME280;2826;51.354;9.588;2023-09-19T00:56:31;97424.22;;;17.96;89.35
5609;BME280;2826;51.354;9.588;2023-09-19T00:58:58;97424.22;;;17.96;89.53
5609;BME280;2826;51.354;9.588;2023-09-19T01:01:27;97434.00;;;17.94;89.70
5609;BME280;2826;51.354;9.588;2023-09-19T01:03:55;97427.34;;;17.90;90.17
5609;BME280;2826;51.354;9.588;2023-09-19T01:06:21;97433.53;;;17.89;89.89
5609;BME280;2826;51.354;9.588;2023-09-19T01:08:48;97437.38;;;17.85;90.04
5609;BME280;2826;51.354;9.588;2023-09-19T01:11:20;97438.47;;;17.82;90.42
5609;BME280;2826;51.354;9.588;2023-09-19T01:13:55;97433.56;;;17.77;90.66
5609;BME280;2826;51.354;9.588;2023-09-19T01:16:32;97442.16;;;17.80;90.79
5609;BME280;2826;51.354;9.588;2023-09-19T01:19:19;97438.94;;;17.76;90.61
5609;BME280;2826;51.354;9.588;2023-09-19T01:21:59;97443.50;;;17.74;90.58
5609;BME280;2826;51.354;9.588;2023-09-19T01:24:54;97435.88;;;17.71;91.11
5609;BME280;2826;51.354;9.588;2023-09-19T01:27:41;97430.03;;;17.67;90.67
5609;BME280;2826;51.354;9.588;2023-09-19T01:30:20;97436.94;;;17.68;90.87
5609;BME280;2826;51.354;9.588;2023-09-19T01:32:49;97443.50;;;17.62;90.78
5609;BME280;2826;51.354;9.588;2023-09-19T01:35:17;97447.94;;;17.62;91.13
5609;BME280;2826;51.354;9.588;2023-09-19T01:37:45;97457.84;;;17.58;91.15
5609;BME280;2826;51.354;9.588;2023-09-19T01:40:12;97456.78;;;17.61;90.97
5609;BME280;2826;51.354;9.588;2023-09-19T01:42:45;97457.84;;;17.58;90.78
5609;BME280;2826;51.354;9.588;2023-09-19T01:45:22;97462.25;;;17.58;91.13
5609;BME280;2826;51.354;9.588;2023-09-19T01:47:54;97456.78;;;17.49;91.81
5609;BME280;2826;51.354;9.588;2023-09-19T01:50:29;97475.22;;;17.59;90.78
5609;BME280;2826;51.354;9.588;2023-09-19T01:53:02;97476.03;;;17.60;90.56
5609;BME280;2826;51.354;9.588;2023-09-19T01:55:30;97469.44;;;17.44;90.77
5609;BME280;2826;51.354;9.588;2023-09-19T01:58:06;97487.16;;;17.52;90.66
5609;BME280;2826;51.354;9.588;2023-09-19T02:00:37;97495.25;;;17.49;90.33
5609;BME280;2826;51.354;9.588;2023-09-19T02:03:08;97484.22;;;17.34;90.12
5609;BME280;2826;51.354;9.588;2023-09-19T02:05:35;97497.91;;;17.37;90.13
5609;BME280;2826;51.354;9.588;2023-09-19T02:08:02;97494.81;;;17.32;89.45
5609;BME280;2826;51.354;9.588;2023-09-19T02:10:29;97491.81;;;17.37;89.59
5609;BME280;2826;51.354;9.588;2023-09-19T02:12:58;97499.94;;;17.34;88.80
5609;BME280;2826;51.354;9.588;2023-09-19T02:15:25;97501.84;;;17.32;87.69
5609;BME280;2826;51.354;9.588;2023-09-19T02:17:53;97496.97;;;17.27;87.62
5609;BME280;2826;51.354;9.588;2023-09-19T02:20:22;97506.59;;;17.27;87.42
5609;BME280;2826;51.354;9.588;2023-09-19T02:22:48;97501.59;;;17.23;87.49
5609;BME280;2826;51.354;9.588;2023-09-19T02:25:15;97506.13;;;17.21;86.94
5609;BME280;2826;51.354;9.588;2023-09-19T02:27:44;97508.28;;;17.16;86.92
5609;BME280;2826;51.354;9.588;2023-09-19T02:30:12;97511.13;;;17.13;87.46
5609;BME280;2826;51.354;9.588;2023-09-19T02:32:41;97524.09;;;17.15;87.23
5609;BME280;2826;51.354;9.588;2023-09-19T02:35:09;97511.72;;;17.17;86.87
5609;BME280;2826;51.354;9.588;2023-09-19T02:37:36;97510.41;;;17.11;86.66
5609;BME280;2826;51.354;9.588;2023-09-19T02:40:05;97515.38;;;17.03;86.37
5609;BME280;2826;51.354;9.588;2023-09-19T02:42:44;97509.91;;;16.94;86.34
5609;BME280;2826;51.354;9.588;2023-09-19T02:45:14;97518.69;;;16.93;86.18
5609;BME280;2826;51.354;9.588;2023-09-19T02:47:43;97514.06;;;16.97;85.28
5609;BME280;2826;51.354;9.588;2023-09-19T02:50:11;97496.41;;;16.76;85.29
5609;BME280;2826;51.354;9.588;2023-09-19T02:52:41;97524.19;;;16.90;85.16
5609;BME280;2826;51.354;9.588;2023-09-19T02:55:09;97533.81;;;16.90;84.85
5609;BME280;2826;51.354;9.588;2023-09-19T02:57:36;97527.97;;;16.86;85.38
5609;BME280;2826;51.354;9.588;2023-09-19T03:00:07;97527.75;;;16.89;84.95
5609;BME280;2826;51.354;9.588;2023-09-19T03:02:35;97533.91;;;16.88;85.12
5609;BME280;2826;51.354;9.588;2023-09-19T03:05:04;97540.69;;;16.79;85.70
5609;BME280;2826;51.354;9.588;2023-09-19T03:07:34;97546.16;;;16.76;85.39
5609;BME280;2826;51.354;9.588;2023-09-19T03:10:04;97536.16;;;16.70;84.76
5609;BME280;2826;51.354;9.588;2023-09-19T03:12:31;97545.69;;;16.71;85.51
5609;BME280;2826;51.354;9.588;2023-09-19T03:14:59;97551.03;;;16.69;85.18
5609;BME280;2826;51.354;9.588;2023-09-19T03:17:26;97561.22;;;16.61;85.91
5609;BME280;2826;51.354;9.588;2023-09-19T03:19:53;97551.50;;;16.63;85.11
5609;BME280;2826;51.354;9.588;2023-09-19T03:22:20;97555.28;;;16.59;84.75
5609;BME280;2826;51.354;9.588;2023-09-19T03:24:48;97553.38;;;16.61;84.89
5609;BME280;2826;51.354;9.588;2023-09-19T03:27:15;97562.28;;;16.58;84.68
5609;BME280;2826;51.354;9.588;2023-09-19T03:29:42;97563.13;;;16.59;84.45
5609;BME280;2826;51.354;9.588;2023-09-19T03:32:09;97562.41;;;16.57;84.12
5609;BME280;2826;51.354;9.588;2023-09-19T03:34:37;97559.28;;;16.52;83.55
5609;BME280;2826;51.354;9.588;2023-09-19T03:37:08;97563.81;;;16.50;83.18
5609;BME280;2826;51.354;9.588;2023-09-19T03:39:35;97565.25;;;16.54;83.03
5609;BME280;2826;51.354;9.588;2023-09-19T03:42:04;97561.31;;;16.48;82.52
5609;BME280;2826;51.354;9.588;2023-09-19T03:44:33;97555.34;;;16.46;82.48
5609;BME280;2826;51.354;9.588;2023-09-19T03:47:00;97559.53;;;16.49;82.26
5609;BME280;2826;51.354;9.588;2023-09-19T03:49:31;97571.28;;;16.43;82.60
5609;BME280;2826;51.354;9.588;2023-09-19T03:51:59;97565.00;;;16.45;82.56
5609;BME280;2826;51.354;9.588;2023-09-19T03:54:26;97573.78;;;16.44;82.31
5609;BME280;2826;51.354;9.588;2023-09-19T03:56:52;97570.06;;;16.36;82.19
5609;BME280;2826;51.354;9.588;2023-09-19T03:59:20;97565.88;;;16.33;82.37
5609;BME280;2826;51.354;9.588;2023-09-19T04:01:47;97573.41;;;16.38;81.99
5609;BME280;2826;51.354;9.588;2023-09-19T04:04:15;97579.56;;;16.37;82.61
5609;BME280;2826;51.354;9.588;2023-09-19T04:06:44;97574.13;;;16.40;82.85
5609;BME280;2826;51.354;9.588;2023-09-19T04:09:10;97577.22;;;16.45;82.13
5609;BME280;2826;51.354;9.588;2023-09-19T04:11:37;97580.06;;;16.42;82.78
5609;BME280;2826;51.354;9.588;2023-09-19T04:14:04;97576.91;;;16.50;82.54
5609;BME280;2826;51.354;9.588;2023-09-19T04:16:32;97584.41;;;16.54;81.75
5609;BME280;2826;51.354;9.588;2023-09-19T04:19:00;97593.00;;;16.56;82.08
5609;BME280;2826;51.354;9.588;2023-09-19T04:21:27;97589.31;;;16.59;81.95
5609;BME280;2826;51.354;9.588;2023-09-19T04:23:55;97593.69;;;16.58;82.01
5609;BME280;2826;51.354;9.588;2023-09-19T04:26:21;97590.97;;;16.60;82.25
5609;BME280;2826;51.354;9.588;2023-09-19T04:28:49;97591.47;;;16.65;82.03
5609;BME280;2826;51.354;9.588;2023-09-19T04:31:16;97598.97;;;16.70;81.39
5609;BME280;2826;51.354;9.588;2023-09-19T04:33:46;97595.75;;;16.66;81.21
5609;BME280;2826;51.354;9.588;2023-09-19T04:36:13;97595.63;;;16.68;81.39
5609;BME280;2826;51.354;9.588;2023-09-19T04:38:40;97582.78;;;16.65;82.09
5609;BME280;2826;51.354;9.588;2023-09-19T04:41:07;97600.16;;;16.66;81.87
5609;BME280;2826;51.354;9.588;2023-09-19T04:43:33;97595.63;;;16.68;81.09
5609;BME280;2826;51.354;9.588;2023-09-19T04:46:00;97594.56;;;16.70;81.05
5609;BME280;2826;51.354;9.588;2023-09-19T04:48:27;97592.69;;;16.72;80.72
5609;BME280;2826;51.354;9.588;2023-09-19T04:50:56;97596.25;;;16.71;81.11
5609;BME280;2826;51.354;9.588;2023-09-19T04:53:23;97594.44;;;16.72;80.50
5609;BME280;2826;51.354;9.588;2023-09-19T04:55:50;97586.56;;;16.61;81.28
5609;BME280;2826;51.354;9.588;2023-09-19T04:58:18;97601.13;;;16.65;80.84
5609;BME280;2826;51.354;9.588;2023-09-19T05:00:45;97598.34;;;16.66;80.14
5609;BME280;2826;51.354;9.588;2023-09-19T05:03:12;97598.59;;;16.63;80.19
5609;BME280;2826;51.354;9.588;2023-09-19T05:05:39;97593.97;;;16.67;80.75
5609;BME280;2826;51.354;9.588;2023-09-19T05:08:07;97593.97;;;16.67;80.25
5609;BME280;2826;51.354;9.588;2023-09-19T05:10:35;97602.66;;;16.67;79.60
5609;BME280;2826;51.354;9.588;2023-09-19T05:13:03;97602.88;;;16.64;79.45
5609;BME280;2826;51.354;9.588;2023-09-19T05:15:30;97605.72;;;16.61;79.84
5609;BME280;2826;51.354;9.588;2023-09-19T05:17:57;97599.78;;;16.59;80.01
5609;BME280;2826;51.354;9.588;2023-09-19T05:20:24;97612.13;;;16.57;79.57
5609;BME280;2826;51.354;9.588;2023-09-19T05:22:58;97612.97;;;16.57;79.78
5609;BME280;2826;51.354;9.588;2023-09-19T05:25:28;97616.44;;;16.58;79.52
5609;BME280;2826;51.354;9.588;2023-09-19T05:27:57;97611.31;;;16.56;79.37
5609;BME280;2826;51.354;9.588;2023-09-19T05:30:25;97612.00;;;16.58;79.50
5609;BME280;2826;51.354;9.588;2023-09-19T05:32:53;97616.28;;;16.59;78.86
5609;BME280;2826;51.354;9.588;2023-09-19T05:35:20;97614.03;;;16.55;79.48
5609;BME280;2826;51.354;9.588;2023-09-19T05:37:47;97619.28;;;16.55;79.05
5609;BME280;2826;51.354;9.588;2023-09-19T05:40:16;97624.88;;;16.62;78.92
5609;BME280;2826;51.354;9.588;2023-09-19T05:42:45;97641.53;;;16.61;78.76
5609;BME280;2826;51.354;9.588;2023-09-19T05:45:12;97638.94;;;16.61;78.74
5609;BME280;2826;51.354;9.588;2023-09-19T05:47:40;97635.84;;;16.67;78.30
5609;BME280;2826;51.354;9.588;2023-09-19T05:50:09;97642.63;;;16.69;77.53
5609;BME280;2826;51.354;9.588;2023-09-19T05:52:36;97651.91;;;16.62;77.82
5609;BME280;2826;51.354;9.588;2023-09-19T05:55:04;97651.06;;;16.62;78.21
5609;BME280;2826;51.354;9.588;2023-09-19T05:57:32;97648.56;;;16.60;78.28
5609;BME280;2826;51.354;9.588;2023-09-19T06:00:00;97655.44;;;16.61;78.22
5609;BME280;2826;51.354;9.588;2023-09-19T06:02:37;97656.19;;;16.63;78.46
5609;BME280;2826;51.354;9.588;2023-09-19T06:05:06;97662.03;;;16.67;78.41
5609;BME280;2826;51.354;9.588;2023-09-19T06:07:36;97667.16;;;16.68;77.53
5609;BME280;2826;51.354;9.588;2023-09-19T06:10:03;97673.94;;;16.71;77.32
5609;BME280;2826;51.354;9.588;2023-09-19T06:12:32;97675.69;;;16.59;77.69
5609;BME280;2826;51.354;9.588;2023-09-19T06:15:01;97688.66;;;16.61;77.88
5609;BME280;2826;51.354;9.588;2023-09-19T06:17:28;97686.84;;;16.61;77.28
5609;BME280;2826;51.354;9.588;2023-09-19T06:19:56;97691.88;;;16.64;77.40
5609;BME280;2826;51.354;9.588;2023-09-19T06:22:24;97694.50;;;16.64;76.86
5609;BME280;2826;51.354;9.588;2023-09-19T06:24:50;97697.00;;;16.66;76.54
5609;BME280;2826;51.354;9.588;2023-09-19T06:27:17;97705.16;;;16.74;76.25
5609;BME280;2826;51.354;9.588;2023-09-19T06:29:44;97704.78;;;16.79;75.65
5609;BME280;2826;51.354;9.588;2023-09-19T06:32:12;97714.94;;;16.83;74.87
5609;BME280;2826;51.354;9.588;2023-09-19T06:34:39;97714.09;;;16.83;74.61
5609;BME280;2826;51.354;9.588;2023-09-19T06:37:08;97726.97;;;16.86;74.04
5609;BME280;2826;51.354;9.588;2023-09-19T06:39:35;97729.88;;;16.94;73.31
5609;BME280;2826;51.354;9.588;2023-09-19T06:42:02;97739.13;;;16.87;73.78
5609;BME280;2826;51.354;9.588;2023-09-19T06:44:29;97742.22;;;16.92;72.94
5609;BME280;2826;51.354;9.588;2023-09-19T06:46:57;97756.44;;;17.01;72.63
5609;BME280;2826;51.354;9.588;2023-09-19T06:49:25;97751.94;;;17.03;71.87
5609;BME280;2826;51.354;9.588;2023-09-19T06:51:54;97764.63;;;17.09;71.67
5609;BME280;2826;51.354;9.588;2023-09-19T06:54:20;97759.25;;;17.11;71.52
5609;BME280;2826;51.354;9.588;2023-09-19T06:56:47;97764.88;;;17.18;70.67
5609;BME280;2826;51.354;9.588;2023-09-19T06:59:14;97766.69;;;17.29;71.05
5609;BME280;2826;51.354;9.588;2023-09-19T07:01:40;97760.16;;;17.34;70.33
5609;BME280;2826;51.354;9.588;2023-09-19T07:04:10;97777.19;;;17.29;69.21
5609;BME280;2826;51.354;9.588;2023-09-19T07:06:39;97772.22;;;17.37;69.10
5609;BME280;2826;51.354;9.588;2023-09-19T07:09:06;97779.38;;;17.46;69.25
5609;BME280;2826;51.354;9.588;2023-09-19T07:11:33;97767.72;;;17.50;67.81
5609;BME280;2826;51.354;9.588;2023-09-19T07:14:00;97771.41;;;17.48;67.19
5609;BME280;2826;51.354;9.588;2023-09-19T07:16:30;97770.13;;;17.54;66.69
5609;BME280;2826;51.354;9.588;2023-09-19T07:18:57;97769.28;;;17.53;66.28
5609;BME280;2826;51.354;9.588;2023-09-19T07:21:24;97767.72;;;17.50;65.89
5609;BME280;2826;51.354;9.588;2023-09-19T07:23:52;97772.97;;;17.50;65.07
5609;BME280;2826;51.354;9.588;2023-09-19T07:26:18;97769.97;;;17.44;63.77
5609;BME280;2826;51.354;9.588;2023-09-19T07:28:45;97775.47;;;17.52;63.96
5609;BME280;2826;51.354;9.588;2023-09-19T07:31:12;97767.28;;;17.57;63.72
5609;BME280;2826;51.354;9.588;2023-09-19T07:33:39;97774.09;;;17.59;63.35
5609;BME280;2826;51.354;9.588;2023-09-19T07:36:10;97783.97;;;17.67;63.42
5609;BME280;2826;51.354;9.588;2023-09-19T07:38:39;97784.47;;;17.72;62.49
5609;BME280;2826;51.354;9.588;2023-09-19T07:41:07;97775.66;;;17.73;62.63
5609;BME280;2826;51.354;9.588;2023-09-19T07:43:35;97781.03;;;17.72;62.58
5609;BME280;2826;51.354;9.588;2023-09-19T07:46:04;97780.66;;;17.76;62.43
5609;BME280;2826;51.354;9.588;2023-09-19T07:48:32;97787.72;;;17.87;62.60
5609;BME280;2826;51.354;9.588;2023-09-19T07:51:02;97784.97;;;17.89;61.99
5609;BME280;2826;51.354;9.588;2023-09-19T07:53:28;97789.88;;;17.94;61.98
5609;BME280;2826;51.354;9.588;2023-09-19T07:56:02;97786.19;;;17.96;60.89
5609;BME280;2826;51.354;9.588;2023-09-19T07:58:30;97777.84;;;18.02;60.89
5609;BME280;2826;51.354;9.588;2023-09-19T08:01:02;97780.63;;;18.12;60.99
5609;BME280;2826;51.354;9.588;2023-09-19T08:03:29;97789.34;;;18.24;60.46
5609;BME280;2826;51.354;9.588;2023-09-19T08:05:56;97787.31;;;18.28;60.64
5609;BME280;2826;51.354;9.588;2023-09-19T08:08:23;97788.59;;;18.45;60.44
5609;BME280;2826;51.354;9.588;2023-09-19T08:10:52;97795.41;;;18.59;60.00
5609;BME280;2826;51.354;9.588;2023-09-19T08:13:21;97801.38;;;18.61;60.09
5609;BME280;2826;51.354;9.588;2023-09-19T08:15:49;97800.16;;;18.77;58.59
5609;BME280;2826;51.354;9.588;2023-09-19T08:18:18;97805.16;;;18.80;58.71
5609;BME280;2826;51.354;9.588;2023-09-19T08:20:50;97807.19;;;18.88;58.73
5609;BME280;2826;51.354;9.588;2023-09-19T08:23:17;97800.47;;;18.95;57.83
5609;BME280;2826;51.354;9.588;2023-09-19T08:25:45;97805.75;;;18.84;57.29
5609;BME280;2826;51.354;9.588;2023-09-19T08:28:12;97802.66;;;18.78;58.42
5609;BME280;2826;51.354;9.588;2023-09-19T08:30:43;97806.72;;;18.71;57.42
5609;BME280;2826;51.354;9.588;2023-09-19T08:33:11;97805.28;;;18.67;57.68
5609;BME280;2826;51.354;9.588;2023-09-19T08:35:40;97812.94;;;18.70;57.23
5609;BME280;2826;51.354;9.588;2023-09-19T08:38:08;97809.69;;;18.78;58.06
5609;BME280;2826;51.354;9.588;2023-09-19T08:40:37;97825.47;;;18.66;57.79
5609;BME280;2826;51.354;9.588;2023-09-19T08:43:05;97819.97;;;18.70;58.11
5609;BME280;2826;51.354;9.588;2023-09-19T08:45:33;97817.50;;;18.68;58.46
5609;BME280;2826;51.354;9.588;2023-09-19T08:48:15;97812.44;;;18.76;58.73
5609;BME280;2826;51.354;9.588;2023-09-19T08:50:49;97808.72;;;18.79;58.08
5609;BME280;2826;51.354;9.588;2023-09-19T08:53:21;97813.41;;;18.87;58.02
5609;BME280;2826;51.354;9.588;2023-09-19T08:55:51;97808.50;;;18.82;56.79
5609;BME280;2826;51.354;9.588;2023-09-19T08:58:20;97813.63;;;18.84;57.45
5609;BME280;2826;51.354;9.588;2023-09-19T09:00:50;97815.41;;;18.94;58.12
5609;BME280;2826;51.354;9.588;2023-09-19T09:03:19;97822.81;;;18.89;57.37
5609;BME280;2826;51.354;9.588;2023-09-19T09:05:47;97827.91;;;19.02;57.44
5609;BME280;2826;51.354;9.588;2023-09-19T09:08:16;97826.88;;;19.05;57.46
5609;BME280;2826;51.354;9.588;2023-09-19T09:10:45;97829.00;;;19.11;57.43
5609;BME280;2826;51.354;9.588;2023-09-19T09:13:12;97829.59;;;19.15;56.10
5609;BME280;2826;51.354;9.588;2023-09-19T09:15:41;97830.91;;;19.21;56.53
5609;BME280;2826;51.354;9.588;2023-09-19T09:18:09;97822.41;;;19.17;55.38
5609;BME280;2826;51.354;9.588;2023-09-19T09:20:37;97821.19;;;19.21;55.22
5609;BME280;2826;51.354;9.588;2023-09-19T09:23:04;97819.50;;;19.31;55.42
5609;BME280;2826;51.354;9.588;2023-09-19T09:25:48;97825.47;;;19.33;54.34
5609;BME280;2826;51.354;9.588;2023-09-19T09:28:19;97828.59;;;19.27;53.99
5609;BME280;2826;51.354;9.588;2023-09-19T09:30:47;97831.13;;;19.29;54.55
5609;BME280;2826;51.354;9.588;2023-09-19T09:33:14;97830.72;;;19.33;54.00
5609;BME280;2826;51.354;9.588;2023-09-19T09:35:50;97823.50;;;19.47;53.93
5609;BME280;2826;51.354;9.588;2023-09-19T09:38:23;97818.19;;;19.58;53.19
5609;BME280;2826;51.354;9.588;2023-09-19T09:40:53;97813.19;;;19.77;52.74
5609;BME280;2826;51.354;9.588;2023-09-19T09:43:31;97823.00;;;19.96;52.86
5609;BME280;2826;51.354;9.588;2023-09-19T09:46:08;97831.25;;;20.03;53.00
5609;BME280;2826;51.354;9.588;2023-09-19T09:48:57;97834.69;;;19.82;51.70
5609;BME280;2826;51.354;9.588;2023-09-19T09:51:39;97825.19;;;19.91;52.19
5609;BME280;2826;51.354;9.588;2023-09-19T09:54:11;97833.50;;;20.07;51.40
5609;BME280;2826;51.354;9.588;2023-09-19T09:56:52;97818.16;;;20.13;50.93
5609;BME280;2826;51.354;9.588;2023-09-19T09:59:20;97825.31;;;20.32;51.31
5609;BME280;2826;51.354;9.588;2023-09-19T10:01:49;97836.34;;;20.57;51.18
5609;BME280;2826;51.354;9.588;2023-09-19T10:04:27;97830.06;;;20.79;50.00
5609;BME280;2826;51.354;9.588;2023-09-19T10:06:59;97833.47;;;21.01;49.93
5609;BME280;2826;51.354;9.588;2023-09-19T10:09:44;97836.41;;;21.08;49.00
5609;BME280;2826;51.354;9.588;2023-09-19T10:12:14;97822.41;;;21.17;48.35
5609;BME280;2826;51.354;9.588;2023-09-19T10:14:43;97820.75;;;21.36;47.78
5609;BME280;2826;51.354;9.588;2023-09-19T10:17:15;97826.56;;;21.49;47.97
5609;BME280;2826;51.354;9.588;2023-09-19T10:19:50;97833.38;;;21.52;47.23
5609;BME280;2826;51.354;9.588;2023-09-19T10:22:20;97827.66;;;21.66;47.44
5609;BME280;2826;51.354;9.588;2023-09-19T10:24:49;97836.56;;;21.65;47.32
5609;BME280;2826;51.354;9.588;2023-09-19T10:27:16;97825.47;;;21.62;47.13
5609;BME280;2826;51.354;9.588;2023-09-19T10:29:45;97824.06;;;21.48;46.10
5609;BME280;2826;51.354;9.588;2023-09-19T10:34:46;97823.50;;;21.24;46.71
5609;BME280;2826;51.354;9.588;2023-09-19T10:37:16;97814.50;;;21.37;47.25
5609;BME280;2826;51.354;9.588;2023-09-19T10:39:46;97823.78;;;21.61;46.21
5609;BME280;2826;51.354;9.588;2023-09-19T10:42:19;97819.19;;;21.63;46.37
5609;BME280;2826;51.354;9.588;2023-09-19T10:44:46;97822.81;;;21.62;46.49
5609;BME280;2826;51.354;9.588;2023-09-19T10:47:15;97824.63;;;21.71;46.01
5609;BME280;2826;51.354;9.588;2023-09-19T10:49:45;97823.53;;;21.74;45.73
5609;BME280;2826;51.354;9.588;2023-09-19T10:52:13;97812.13;;;21.73;45.98
5609;BME280;2826;51.354;9.588;2023-09-19T10:54:48;97797.13;;;21.54;45.45
5609;BME280;2826;51.354;9.588;2023-09-19T10:57:19;97811.44;;;21.61;46.26
5609;BME280;2826;51.354;9.588;2023-09-19T11:00:00;97803.91;;;21.66;46.59
5609;BME280;2826;51.354;9.588;2023-09-19T11:03:17;97810.47;;;21.82;46.67
5609;BME280;2826;51.354;9.588;2023-09-19T11:06:01;97813.22;;;21.90;45.60
5609;BME280;2826;51.354;9.588;2023-09-19T11:08:28;97809.88;;;21.88;45.90
5609;BME280;2826;51.354;9.588;2023-09-19T11:10:57;97812.81;;;21.65;45.26
5609;BME280;2826;51.354;9.588;2023-09-19T11:13:25;97797.00;;;21.36;46.02
5609;BME280;2826;51.354;9.588;2023-09-19T11:16:18;97792.84;;;21.33;46.55
5609;BME280;2826;51.354;9.588;2023-09-19T11:18:52;97803.81;;;21.38;47.26
5609;BME280;2826;51.354;9.588;2023-09-19T11:21:40;97806.31;;;21.40;46.31
5609;BME280;2826;51.354;9.588;2023-09-19T11:27:12;97794.63;;;21.33;46.99
5609;BME280;2826;51.354;9.588;2023-09-19T11:29:40;97804.09;;;21.45;46.83
5609;BME280;2826;51.354;9.588;2023-09-19T11:32:07;97804.50;;;21.50;45.91
5609;BME280;2826;51.354;9.588;2023-09-19T11:34:46;97798.66;;;21.27;45.52
5609;BME280;2826;51.354;9.588;2023-09-19T11:40:45;97805.75;;;21.36;46.44
5609;BME280;2826;51.354;9.588;2023-09-19T11:43:33;97798.94;;;21.53;45.58
5609;BME280;2826;51.354;9.588;2023-09-19T11:46:08;97808.94;;;21.79;45.07
5609;BME280;2826;51.354;9.588;2023-09-19T11:48:35;97800.31;;;21.87;44.54
5609;BME280;2826;51.354;9.588;2023-09-19T11:51:24;97798.47;;;21.98;43.86
5609;BME280;2826;51.354;9.588;2023-09-19T11:53:54;97794.22;;;22.25;44.07
5609;BME280;2826;51.354;9.588;2023-09-19T11:56:22;97788.38;;;22.31;43.90
5609;BME280;2826;51.354;9.588;2023-09-19T11:58:52;97789.03;;;22.33;43.76
5609;BME280;2826;51.354;9.588;2023-09-19T12:01:26;97798.97;;;22.59;44.13
5609;BME280;2826;51.354;9.588;2023-09-19T12:03:55;97790.59;;;22.26;43.80
5609;BME280;2826;51.354;9.588;2023-09-19T12:06:24;97805.66;;;22.15;43.77
5609;BME280;2826;51.354;9.588;2023-09-19T12:08:51;97772.66;;;22.01;44.26
5609;BME280;2826;51.354;9.588;2023-09-19T12:11:21;97800.72;;;21.92;44.40
5609;BME280;2826;51.354;9.588;2023-09-19T12:13:48;97796.28;;;21.83;45.34
5609;BME280;2826;51.354;9.588;2023-09-19T12:16:18;97800.44;;;21.96;46.45
5609;BME280;2826;51.354;9.588;2023-09-19T12:18:47;97797.13;;;22.31;44.72
5609;BME280;2826;51.354;9.588;2023-09-19T12:21:31;97795.81;;;22.74;44.06
5609;BME280;2826;51.354;9.588;2023-09-19T12:24:04;97789.31;;;23.14;41.89
5609;BME280;2826;51.354;9.588;2023-09-19T12:26:38;97790.09;;;23.25;41.86
5609;BME280;2826;51.354;9.588;2023-09-19T12:29:11;97779.28;;;23.36;41.56
5609;BME280;2826;51.354;9.588;2023-09-19T12:31:51;97785.91;;;23.58;40.63
5609;BME280;2826;51.354;9.588;2023-09-19T12:34:22;97791.88;;;23.60;40.62
5609;BME280;2826;51.354;9.588;2023-09-19T12:37:05;97789.50;;;23.75;40.85
5609;BME280;2826;51.354;9.588;2023-09-19T12:39:38;97796.66;;;23.39;39.81
5609;BME280;2826;51.354;9.588;2023-09-19T12:42:08;97784.34;;;23.47;40.77
5609;BME280;2826;51.354;9.588;2023-09-19T12:44:36;97789.31;;;23.32;40.87
5609;BME280;2826;51.354;9.588;2023-09-19T12:47:15;97801.72;;;23.14;40.70
5609;BME280;2826;51.354;9.588;2023-09-19T12:50:10;97786.91;;;22.75;41.05
5609;BME280;2826;51.354;9.588;2023-09-19T12:52:44;97801.50;;;22.79;41.73
5609;BME280;2826;51.354;9.588;2023-09-19T12:55:26;97796.25;;;22.97;41.72
5609;BME280;2826;51.354;9.588;2023-09-19T12:58:02;97800.94;;;22.85;41.87
5609;BME280;2826;51.354;9.588;2023-09-19T13:00:35;97799.06;;;22.67;41.31
5609;BME280;2826;51.354;9.588;2023-09-19T13:03:26;97784.09;;;22.58;41.53
5609;BME280;2826;51.354;9.588;2023-09-19T13:05:54;97783.56;;;22.54;41.89
5609;BME280;2826;51.354;9.588;2023-09-19T13:08:27;97787.53;;;22.30;42.41
5609;BME280;2826;51.354;9.588;2023-09-19T13:11:14;97779.63;;;22.21;42.19
5609;BME280;2826;51.354;9.588;2023-09-19T13:13:46;97771.25;;;21.97;42.17
5609;BME280;2826;51.354;9.588;2023-09-19T13:16:14;97784.47;;;21.97;42.82
5609;BME280;2826;51.354;9.588;2023-09-19T13:18:47;97778.56;;;22.13;43.21
5609;BME280;2826;51.354;9.588;2023-09-19T13:21:17;97781.13;;;22.33;43.02
5609;BME280;2826;51.354;9.588;2023-09-19T13:23:54;97786.69;;;22.30;42.71
5609;BME280;2826;51.354;9.588;2023-09-19T13:26:24;97773.94;;;22.25;43.16
5609;BME280;2826;51.354;9.588;2023-09-19T13:28:51;97780.56;;;22.01;42.96
5609;BME280;2826;51.354;9.588;2023-09-19T13:31:17;97775.56;;;21.98;43.47
5609;BME280;2826;51.354;9.588;2023-09-19T13:33:45;97781.56;;;21.90;43.95
5609;BME280;2826;51.354;9.588;2023-09-19T13:36:13;97750.06;;;22.17;43.91
5609;BME280;2826;51.354;9.588;2023-09-19T13:38:40;97772.78;;;22.38;43.08
5609;BME280;2826;51.354;9.588;2023-09-19T13:41:09;97778.31;;;22.73;42.58
5609;BME280;2826;51.354;9.588;2023-09-19T13:43:36;97769.28;;;23.12;42.44
5609;BME280;2826;51.354;9.588;2023-09-19T13:46:03;97761.56;;;23.18;40.79
5609;BME280;2826;51.354;9.588;2023-09-19T13:48:30;97760.69;;;23.09;40.60